Time;durP1;ratioP1;P1;durP2;ratioP2;P2;SDS_P1;SDS_P2;PMS_P1;PMS_P2;Temp;Humidity;BMP_temperature;BMP_pressure;BME280_temperature;BME280_humidity;BME280_pressure;Samples;Min_cycle;Max_cycle;Signal;HPM_P1;HPM_P2
2022/02/27 00:01:27;;;;;;;28.73;14.25;;;4.00;99.90;;;;;;6162870;23;20028;-88
2022/02/27 00:03:56;;;;;;;33.35;14.68;;;3.90;99.90;;;;;;6162470;23;20004;-93
2022/02/27 00:06:24;;;;;;;30.83;13.35;;;3.90;99.90;;;;;;6161916;23;20008;-88
2022/02/27 00:08:58;;;;;;;35.05;14.82;;;3.90;99.90;;;;;;6161522;23;20001;-88
2022/02/27 00:11:31;;;;;;;36.40;15.57;;;3.80;99.90;;;;;;6162047;23;20053;-88
2022/02/27 00:13:57;;;;;;;33.00;13.98;;;3.80;99.90;;;;;;6162127;23;20013;-89
2022/02/27 00:16:33;;;;;;;36.63;14.65;;;3.80;99.90;;;;;;6161967;23;20012;-88
2022/02/27 00:19:07;;;;;;;33.72;15.05;;;3.80;99.90;;;;;;6162308;23;20009;-89
2022/02/27 00:21:41;;;;;;;36.40;13.25;;;3.70;99.90;;;;;;6139190;23;20069;-89
2022/02/27 00:24:08;;;;;;;30.52;12.02;;;3.80;99.90;;;;;;6161819;23;20412;-89
2022/02/27 00:26:46;;;;;;;31.05;14.13;;;3.70;99.90;;;;;;6161889;23;20079;-88
2022/02/27 00:29:16;;;;;;;32.33;13.73;;;3.70;99.90;;;;;;6115615;23;20001;-89
2022/02/27 00:31:44;;;;;;;31.65;12.27;;;3.70;99.90;;;;;;6187999;23;20446;-89
2022/02/27 00:34:13;;;;;;;28.30;11.98;;;3.60;99.90;;;;;;6136929;23;20044;-89
2022/02/27 00:36:41;;;;;;;31.35;13.13;;;3.60;99.90;;;;;;6137588;23;20092;-89
2022/02/27 00:39:17;;;;;;;29.85;12.60;;;3.60;99.90;;;;;;6161633;23;20331;-89
2022/02/27 00:41:43;;;;;;;30.08;12.55;;;3.50;99.90;;;;;;6161588;23;20005;-90
2022/02/27 00:44:15;;;;;;;29.20;13.13;;;3.60;99.90;;;;;;6162015;23;20419;-89
2022/02/27 00:46:45;;;;;;;29.85;11.43;;;3.50;99.90;;;;;;6137478;23;20313;-89
2022/02/27 00:49:29;;;;;;;23.27;11.45;;;3.50;99.90;;;;;;6137715;23;20005;-89
2022/02/27 00:51:57;;;;;;;27.83;11.18;;;3.50;99.90;;;;;;6162164;23;19997;-89
2022/02/27 00:54:28;;;;;;;22.83;10.25;;;3.50;99.90;;;;;;6161809;23;20005;-88
2022/02/27 00:56:56;;;;;;;;;;;3.40;99.90;;;;;;6162298;23;20001;-88
2022/02/27 00:59:24;;;;;;;26.38;9.40;;;3.40;99.90;;;;;;6160347;23;19904;-89
2022/02/27 01:01:59;;;;;;;24.80;10.88;;;3.40;99.90;;;;;;6135803;23;20044;-90
2022/02/27 01:04:27;;;;;;;24.17;8.90;;;3.40;99.90;;;;;;6161582;23;20040;-87
2022/02/27 01:07:01;;;;;;;23.90;9.32;;;3.30;99.90;;;;;;6137195;23;20005;-88
2022/02/27 01:09:26;;;;;;;22.33;8.95;;;3.40;99.90;;;;;;6138212;23;20017;-88
2022/02/27 01:11:55;;;;;;;23.15;8.45;;;3.40;99.90;;;;;;6161951;23;19997;-89
2022/02/27 01:14:37;;;;;;;22.85;8.05;;;3.30;99.90;;;;;;6161580;23;20005;-89
2022/02/27 01:17:08;;;;;;;25.95;9.77;;;3.30;99.90;;;;;;6137525;23;20001;-89
2022/02/27 01:19:34;;;;;;;26.65;8.73;;;3.30;99.90;;;;;;6160216;23;20076;-89
2022/02/27 01:22:10;;;;;;;20.48;8.05;;;3.30;99.90;;;;;;6162072;23;19997;-88
2022/02/27 01:24:46;;;;;;;24.48;8.07;;;3.30;99.90;;;;;;6163935;23;20005;-88
2022/02/27 01:27:18;;;;;;;25.98;8.60;;;3.30;99.90;;;;;;6163139;23;20001;-89
2022/02/27 01:29:48;;;;;;;22.90;8.15;;;3.30;99.90;;;;;;6137804;23;20005;-89
2022/02/27 01:32:22;;;;;;;21.77;8.15;;;3.30;99.90;;;;;;6163018;23;20008;-89
2022/02/27 01:34:50;;;;;;;22.98;8.65;;;3.20;99.90;;;;;;6187866;23;20001;-90
2022/02/27 01:37:19;;;;;;;20.58;7.95;;;3.20;99.90;;;;;;6187439;23;19989;-90
2022/02/27 01:39:52;;;;;;;23.73;9.00;;;3.20;99.90;;;;;;6188568;23;19989;-89
2022/02/27 01:42:18;;;;;;;21.13;7.75;;;3.20;99.90;;;;;;6188642;23;19989;-90
2022/02/27 01:44:47;;;;;;;20.55;7.03;;;3.20;99.90;;;;;;6188201;23;20005;-91
2022/02/27 01:47:23;;;;;;;22.05;7.28;;;3.20;99.90;;;;;;6188102;23;19993;-89
2022/02/27 01:49:55;;;;;;;23.08;7.57;;;3.20;99.90;;;;;;6162222;23;20005;-89
2022/02/27 01:52:24;;;;;;;21.52;6.70;;;3.20;99.90;;;;;;6173873;23;20001;-89
2022/02/27 01:54:54;;;;;;;26.35;7.75;;;3.20;99.90;;;;;;6163628;23;20009;-88
2022/02/27 01:57:23;;;;;;;27.20;7.10;;;3.20;99.90;;;;;;6137614;23;20002;-89
2022/02/27 01:59:54;;;;;;;19.95;7.00;;;3.10;99.90;;;;;;6161507;23;20495;-88
2022/02/27 02:02:25;;;;;;;19.10;7.45;;;3.10;99.90;;;;;;6162302;23;20021;-88
2022/02/27 02:05:01;;;;;;;;;;;;;;;;;;;;;
2022/02/27 02:07:29;;;;;;;22.83;6.70;;;3.20;99.90;;;;;;6188234;23;20080;-87
2022/02/27 02:10:05;;;;;;;20.65;7.55;;;3.10;99.90;;;;;;6161037;23;20013;-89
2022/02/27 02:15:25;;;;;;;25.08;7.40;;;3.10;99.90;;;;;;6187498;23;20092;-88
2022/02/27 02:17:51;;;;;;;25.58;8.45;;;3.00;99.90;;;;;;6160532;23;20005;-89
2022/02/27 02:20:20;;;;;;;15.88;7.03;;;3.00;99.90;;;;;;6160699;23;20012;-87
2022/02/27 02:22:48;;;;;;;19.15;7.13;;;3.00;99.90;;;;;;6161322;23;20064;-89
2022/02/27 02:25:19;;;;;;;20.80;7.70;;;3.00;99.90;;;;;;6161301;23;20493;-89
2022/02/27 02:27:55;;;;;;;18.77;7.22;;;3.00;99.90;;;;;;6161942;23;20487;-89
2022/02/27 02:30:23;;;;;;;22.50;7.10;;;3.00;99.90;;;;;;6161430;23;19997;-89
2022/02/27 02:32:51;;;;;;;19.95;7.45;;;2.90;99.90;;;;;;6136722;23;20001;-88
2022/02/27 02:35:22;;;;;;;26.02;7.05;;;2.90;99.90;;;;;;6187763;23;20009;-89
2022/02/27 02:37:50;;;;;;;25.98;7.93;;;2.90;99.90;;;;;;6136885;23;20553;-88
2022/02/27 02:40:27;;;;;;;23.45;7.88;;;2.90;99.90;;;;;;6136719;23;20024;-89
2022/02/27 02:43:13;;;;;;;21.23;7.40;;;2.90;99.90;;;;;;6187671;23;20005;-88
2022/02/27 02:45:43;;;;;;;21.63;7.60;;;2.90;99.90;;;;;;6161862;23;20061;-88
2022/02/27 02:48:14;;;;;;;18.02;7.10;;;2.80;99.90;;;;;;6137502;23;20009;-88
2022/02/27 02:51:00;;;;;;;19.33;7.60;;;2.80;99.90;;;;;;6161151;23;20001;-89
2022/02/27 02:53:43;;;;;;;19.23;7.25;;;2.80;99.90;;;;;;6161238;23;20099;-88
2022/02/27 02:56:14;;;;;;;23.42;7.40;;;2.80;99.90;;;;;;6138072;23;20079;-88
2022/02/27 02:58:51;;;;;;;;;;;2.80;99.90;;;;;;6167207;23;20001;-85
2022/02/27 03:01:22;;;;;;;22.65;6.60;;;2.80;99.90;;;;;;6175445;23;19900;-86
2022/02/27 03:03:51;;;;;;;19.15;6.90;;;2.70;99.90;;;;;;6171344;23;20008;-89
2022/02/27 03:06:25;;;;;;;17.35;7.10;;;2.70;99.90;;;;;;6160669;23;20038;-89
2022/02/27 03:08:55;;;;;;;22.15;7.50;;;2.70;99.90;;;;;;6136940;23;20005;-88
2022/02/27 03:11:37;;;;;;;22.63;7.15;;;2.70;99.90;;;;;;6161026;23;20035;-88
2022/02/27 03:14:08;;;;;;;19.48;7.00;;;2.70;99.90;;;;;;6160851;23;20016;-89
2022/02/27 03:16:43;;;;;;;20.30;6.82;;;2.70;99.90;;;;;;6136444;23;20006;-88
2022/02/27 03:19:09;;;;;;;20.80;6.80;;;2.70;99.90;;;;;;6160588;23;20355;-88
2022/02/27 03:21:46;;;;;;;21.45;7.47;;;2.70;99.90;;;;;;6160787;23;19997;-88
2022/02/27 03:24:15;;;;;;;24.05;7.55;;;2.70;99.90;;;;;;6139588;23;20016;-88
2022/02/27 03:26:52;;;;;;;20.85;6.88;;;2.60;99.90;;;;;;6162220;23;20008;-88
2022/02/27 03:29:22;;;;;;;20.70;6.93;;;2.70;99.90;;;;;;6162991;23;20412;-88
2022/02/27 03:32:04;;;;;;;19.60;7.47;;;2.70;99.90;;;;;;6162819;23;20408;-87
2022/02/27 03:34:30;;;;;;;25.02;7.35;;;2.60;99.90;;;;;;6138005;23;20100;-88
2022/02/27 03:37:11;;;;;;;;;;;;;;;;;;;;;
2022/02/27 03:39:40;;;;;;;22.05;8.30;;;2.60;99.90;;;;;;6188612;23;20081;-88
2022/02/27 03:42:21;;;;;;;20.08;7.95;;;2.60;99.90;;;;;;6137548;23;20001;-88
2022/02/27 03:44:47;;;;;;;;;;;2.60;99.90;;;;;;6138495;23;20009;-89
2022/02/27 03:47:15;;;;;;;26.05;7.97;;;2.60;99.90;;;;;;6162432;23;19900;-87
2022/02/27 03:49:44;;;;;;;22.73;7.07;;;2.60;99.90;;;;;;6159332;23;19998;-89
2022/02/27 03:52:16;;;;;;;21.25;7.63;;;2.60;99.90;;;;;;6162129;23;19997;-88
2022/02/27 03:54:59;;;;;;;21.45;7.05;;;2.50;99.90;;;;;;6160948;23;20009;-88
2022/02/27 03:57:31;;;;;;;22.40;7.43;;;2.50;99.90;;;;;;6137671;23;20005;-88
2022/02/27 04:00:15;;;;;;;25.38;7.97;;;2.50;99.90;;;;;;6162328;23;20004;-88
2022/02/27 04:02:51;;;;;;;24.10;8.77;;;2.60;99.90;;;;;;6161882;23;20055;-87
2022/02/27 04:05:27;;;;;;;20.70;7.07;;;2.60;99.90;;;;;;6162360;23;20028;-89
2022/02/27 04:08:00;;;;;;;24.70;7.38;;;2.50;99.90;;;;;;6161984;23;20084;-88
2022/02/27 04:10:27;;;;;;;28.50;8.50;;;2.50;99.90;;;;;;6162058;23;20017;-88
2022/02/27 04:13:03;;;;;;;23.67;8.77;;;2.50;99.90;;;;;;6162106;23;20001;-90
2022/02/27 04:21:57;;;;;;;;;;;2.50;99.90;;;;;;6041712;23;20011;-87
2022/02/27 04:24:23;;;;;;;25.40;7.80;;;2.50;99.90;;;;;;6162250;23;19900;-88
2022/02/27 04:27:02;;;;;;;;;;;;;;;;;;;;;
2022/02/27 04:29:28;;;;;;;30.20;7.45;;;2.40;99.90;;;;;;6188065;23;20076;-88
2022/02/27 04:31:54;;;;;;;17.05;6.80;;;2.40;99.90;;;;;;6161967;23;20004;-88
2022/02/27 04:34:23;;;;;;;20.88;7.60;;;2.40;99.90;;;;;;6161943;23;20420;-86
2022/02/27 04:36:59;;;;;;;20.65;7.55;;;2.40;99.90;;;;;;6161599;23;20009;-88
2022/02/27 04:39:36;;;;;;;18.60;6.55;;;2.40;99.90;;;;;;6138365;23;20009;-88
2022/02/27 04:42:05;;;;;;;23.60;7.85;;;2.40;99.90;;;;;;6162455;23;20363;-87
2022/02/27 04:44:41;;;;;;;21.85;7.00;;;2.40;99.90;;;;;;6161582;23;20063;-89
2022/02/27 04:50:26;;;;;;;22.48;7.38;;;2.40;99.90;;;;;;6187774;23;20451;-88
2022/02/27 04:55:38;;;;;;;17.15;6.13;;;2.30;99.90;;;;;;6188263;23;19912;-88
2022/02/27 04:58:04;;;;;;;26.13;6.25;;;2.30;99.90;;;;;;6161905;23;20024;-90
2022/02/27 05:00:36;;;;;;;19.25;7.25;;;2.30;99.90;;;;;;6161756;23;20005;-88
2022/02/27 05:03:02;;;;;;;23.75;7.28;;;2.30;99.90;;;;;;6162192;23;20432;-88
2022/02/27 05:05:27;;;;;;;20.67;7.40;;;2.30;99.90;;;;;;6161393;23;20001;-89
2022/02/27 05:08:06;;;;;;;;;;;;;;;;;;;;;
2022/02/27 05:10:48;;;;;;;35.78;8.05;;;2.20;99.90;;;;;;6188035;23;20065;-88
2022/02/27 05:13:18;;;;;;;21.60;7.32;;;2.30;99.90;;;;;;6161919;23;20044;-88
2022/02/27 05:15:53;;;;;;;22.73;6.95;;;2.30;99.90;;;;;;6167425;23;20005;-88
2022/02/27 05:18:34;;;;;;;21.25;7.00;;;2.20;99.90;;;;;;6184015;23;20052;-88
2022/02/27 05:21:02;;;;;;;;;;;2.20;99.90;;;;;;6188702;23;19990;-89
2022/02/27 05:23:47;;;;;;;14.25;5.82;;;2.20;99.90;;;;;;6188502;23;19888;-93
2022/02/27 05:26:17;;;;;;;18.52;7.13;;;2.20;99.90;;;;;;6188341;23;19989;-86
2022/02/27 05:28:59;;;;;;;23.42;6.43;;;2.20;99.90;;;;;;6187560;23;19993;-87
2022/02/27 05:31:27;;;;;;;24.80;8.27;;;2.10;99.90;;;;;;6188453;23;20009;-89
2022/02/27 05:34:16;;;;;;;19.55;8.02;;;2.20;99.90;;;;;;6185337;23;20020;-88
2022/02/27 05:37:00;;;;;;;23.30;6.88;;;2.10;99.90;;;;;;6196162;23;20009;-88
2022/02/27 05:39:25;;;;;;;17.08;6.90;;;2.10;99.90;;;;;;6162613;23;19997;-88
2022/02/27 05:42:06;;;;;;;;;;;;;;;;;;;;;
2022/02/27 05:44:35;;;;;;;22.38;7.53;;;2.10;99.90;;;;;;6142652;23;20092;-88
2022/02/27 05:47:03;;;;;;;17.33;6.32;;;2.10;99.90;;;;;;6137773;23;20005;-88
2022/02/27 05:49:36;;;;;;;19.05;7.28;;;2.10;99.90;;;;;;6161072;23;20012;-88
2022/02/27 05:52:14;;;;;;;22.42;7.80;;;2.00;99.90;;;;;;6138080;23;20012;-88
2022/02/27 05:54:42;;;;;;;24.35;7.45;;;2.10;99.90;;;;;;6161774;23;20068;-88
2022/02/27 05:57:08;;;;;;;19.27;6.90;;;2.00;99.90;;;;;;6136996;23;20016;-88
2022/02/27 05:59:34;;;;;;;21.42;7.45;;;2.00;99.90;;;;;;6161148;23;20087;-88
2022/02/27 06:02:03;;;;;;;18.25;6.82;;;2.00;99.90;;;;;;6161597;23;20002;-88
2022/02/27 06:04:34;;;;;;;22.08;7.28;;;2.00;99.90;;;;;;6137732;23;20013;-88
2022/02/27 06:07:02;;;;;;;21.08;7.18;;;2.00;99.90;;;;;;6170568;23;20001;-88
2022/02/27 06:09:30;;;;;;;19.42;7.07;;;2.00;99.90;;;;;;6169348;23;20013;-89
2022/02/27 06:11:57;;;;;;;23.38;7.25;;;1.90;99.90;;;;;;6139100;23;20001;-88
2022/02/27 06:14:35;;;;;;;20.23;6.53;;;2.00;99.90;;;;;;6188426;23;20096;-88
2022/02/27 06:17:12;;;;;;;23.25;7.97;;;1.90;99.90;;;;;;6161698;23;19997;-88
2022/02/27 06:19:46;;;;;;;19.73;7.00;;;1.90;99.90;;;;;;6113254;23;20336;-88
2022/02/27 06:22:24;;;;;;;;;;;;;;;;;;;;;
2022/02/27 06:25:03;;;;;;;19.05;6.63;;;1.90;99.90;;;;;;6186371;23;20083;-89
2022/02/27 06:27:31;;;;;;;18.33;7.00;;;1.90;99.90;;;;;;6134801;23;20555;-89
2022/02/27 06:30:24;;;;;;;20.55;7.32;;;1.90;99.90;;;;;;6136545;23;20420;-88
2022/02/27 06:32:52;;;;;;;22.13;6.68;;;1.80;99.90;;;;;;6161123;23;19997;-88
2022/02/27 06:35:43;;;;;;;14.00;6.53;;;1.80;99.90;;;;;;6136069;23;20009;-88
2022/02/27 06:38:17;;;;;;;16.90;6.93;;;1.80;99.90;;;;;;6137822;23;20020;-88
2022/02/27 06:40:43;;;;;;;24.65;7.47;;;1.80;99.90;;;;;;6162127;23;20007;-88
2022/02/27 06:43:12;;;;;;;26.25;7.38;;;1.80;99.90;;;;;;6134463;23;20092;-89
2022/02/27 06:45:47;;;;;;;26.50;7.28;;;1.80;99.90;;;;;;6160783;23;20005;-89
2022/02/27 06:48:20;;;;;;;20.35;6.75;;;1.80;99.90;;;;;;6161156;23;20004;-88
2022/02/27 06:50:46;;;;;;;19.00;6.70;;;1.80;99.90;;;;;;6136555;23;20059;-88
2022/02/27 06:53:15;;;;;;;22.85;6.18;;;1.80;99.90;;;;;;6161316;23;20072;-88
2022/02/27 06:55:52;;;;;;;23.98;7.40;;;1.80;99.90;;;;;;6161380;23;20079;-89
2022/02/27 06:58:21;;;;;;;18.25;7.47;;;1.80;99.90;;;;;;6139499;23;20005;-88
2022/02/27 07:00:47;;;;;;;19.10;6.35;;;1.80;99.90;;;;;;6161847;23;20017;-88
2022/02/27 07:03:16;;;;;;;18.67;6.78;;;1.80;99.90;;;;;;6189370;23;20002;-88
2022/02/27 07:05:52;;;;;;;22.50;7.28;;;1.80;99.90;;;;;;6163147;23;20005;-88
2022/02/27 07:08:30;;;;;;;19.70;7.28;;;1.80;99.90;;;;;;6163451;23;20007;-87
2022/02/27 07:11:23;;;;;;;16.48;6.93;;;1.80;99.90;;;;;;6158322;23;20017;-89
2022/02/27 07:13:57;;;;;;;14.10;6.45;;;1.80;99.90;;;;;;6087734;23;20132;-89
2022/02/27 07:16:41;;;;;;;18.13;6.32;;;1.80;99.90;;;;;;6159754;23;19997;-89
2022/02/27 07:19:09;;;;;;;19.88;6.05;;;1.80;99.90;;;;;;6158062;23;20024;-89
2022/02/27 07:21:41;;;;;;;15.40;6.90;;;1.80;99.90;;;;;;6158268;23;20092;-88
2022/02/27 07:24:10;;;;;;;14.65;6.15;;;1.80;99.90;;;;;;6157411;23;20009;-89
2022/02/27 07:26:39;;;;;;;22.13;6.35;;;1.90;99.90;;;;;;6158024;23;19997;-89
2022/02/27 07:29:15;;;;;;;16.92;5.72;;;1.90;99.90;;;;;;6158141;23;20056;-88
2022/02/27 07:31:43;;;;;;;22.02;6.13;;;1.90;99.90;;;;;;6134493;23;20033;-89
2022/02/27 07:34:14;;;;;;;15.25;5.15;;;1.90;99.90;;;;;;6133005;23;20028;-88
2022/02/27 07:36:40;;;;;;;15.77;5.93;;;1.90;99.90;;;;;;6157930;23;19997;-88
2022/02/27 07:39:09;;;;;;;15.10;5.93;;;2.00;99.90;;;;;;6157211;23;20036;-88
2022/02/27 07:41:36;;;;;;;21.02;6.18;;;2.00;99.90;;;;;;6156893;23;20005;-88
2022/02/27 07:44:20;;;;;;;15.00;6.53;;;2.00;99.90;;;;;;6157915;23;20005;-88
2022/02/27 07:47:11;;;;;;;14.95;6.00;;;2.10;99.90;;;;;;6159458;23;20004;-89
2022/02/27 07:49:49;;;;;;;;;;;;;;;;;;;;;
2022/02/27 07:52:21;;;;;;;14.38;5.60;;;2.10;99.90;;;;;;6158994;23;20488;-88
2022/02/27 07:54:51;;;;;;;16.75;6.65;;;2.20;99.90;;;;;;6157714;23;20082;-88
2022/02/27 07:57:47;;;;;;;18.85;5.13;;;2.20;99.90;;;;;;6157971;23;20005;-88
2022/02/27 08:00:24;;;;;;;14.93;6.05;;;2.20;99.90;;;;;;6157852;23;20001;-88
2022/02/27 08:03:12;;;;;;;12.63;5.10;;;2.30;99.90;;;;;;6134781;23;20010;-88
2022/02/27 08:05:40;;;;;;;15.95;5.95;;;2.30;99.90;;;;;;6157427;23;20016;-88
2022/02/27 08:08:33;;;;;;;14.77;5.70;;;2.40;99.90;;;;;;6157233;23;20004;-88
2022/02/27 08:11:12;;;;;;;;;;;;;;;;;;;;;
2022/02/27 08:13:39;;;;;;;17.25;5.38;;;2.50;99.90;;;;;;6158679;23;20120;-88
2022/02/27 08:18:54;;;;;;;16.17;5.93;;;2.60;99.90;;;;;;6142885;23;20305;-88
2022/02/27 08:21:22;;;;;;;14.35;5.28;;;2.70;99.90;;;;;;6157515;23;20006;-88
2022/02/27 08:23:51;;;;;;;12.20;5.03;;;2.70;99.90;;;;;;6157617;23;20001;-89
2022/02/27 08:26:19;;;;;;;12.82;5.25;;;2.80;99.90;;;;;;6157482;23;20002;-87
2022/02/27 08:28:55;;;;;;;11.80;5.35;;;2.90;99.90;;;;;;6157309;23;20089;-90
2022/02/27 08:31:29;;;;;;;19.10;6.55;;;2.90;99.90;;;;;;6159164;23;20008;-88
2022/02/27 08:34:23;;;;;;;17.20;5.32;;;3.00;99.90;;;;;;6157823;23;19989;-88
2022/02/27 08:36:50;;;;;;;12.98;4.78;;;3.10;99.90;;;;;;6130010;23;20013;-89
2022/02/27 08:39:19;;;;;;;14.75;5.00;;;3.20;99.90;;;;;;6159730;23;20032;-88
2022/02/27 08:41:51;;;;;;;13.10;5.40;;;3.20;99.90;;;;;;6160226;23;19997;-88
2022/02/27 08:44:19;;;;;;;13.82;4.90;;;3.30;99.90;;;;;;6137143;23;20021;-88
2022/02/27 08:46:48;;;;;;;17.27;5.45;;;3.40;99.90;;;;;;6136785;23;20006;-89
2022/02/27 08:49:16;;;;;;;15.98;4.90;;;3.50;99.90;;;;;;6135961;23;20005;-89
2022/02/27 08:54:42;;;;;;;13.10;5.40;;;3.60;99.90;;;;;;6119681;23;20322;-89
2022/02/27 08:57:07;;;;;;;10.98;5.00;;;3.70;99.90;;;;;;6157512;23;20001;-89
2022/02/27 08:59:36;;;;;;;16.55;5.15;;;3.70;99.90;;;;;;6158544;23;20040;-89
2022/02/27 09:02:02;;;;;;;13.77;4.88;;;3.80;99.90;;;;;;6179723;23;20065;-92
2022/02/27 09:04:35;;;;;;;12.77;5.18;;;3.90;99.90;;;;;;6158664;23;20061;-90
2022/02/27 09:07:04;;;;;;;14.38;4.88;;;3.90;99.90;;;;;;6183476;23;19993;-92
2022/02/27 09:09:34;;;;;;;13.40;4.85;;;4.00;99.90;;;;;;6183479;23;19996;-87
2022/02/27 09:12:06;;;;;;;14.93;6.13;;;4.10;99.90;;;;;;6180821;23;20485;-89
2022/02/27 09:14:33;;;;;;;12.13;5.00;;;4.20;99.90;;;;;;6176199;23;20041;-89
2022/02/27 09:17:07;;;;;;;12.30;4.93;;;4.20;99.90;;;;;;6179927;23;20002;-90
2022/02/27 09:19:33;;;;;;;13.43;5.35;;;4.30;99.90;;;;;;6171180;23;20002;-88
2022/02/27 09:22:01;;;;;;;15.88;5.10;;;4.40;99.90;;;;;;6156998;23;20089;-89
2022/02/27 09:24:27;;;;;;;14.93;4.82;;;4.50;99.90;;;;;;6158411;23;20129;-89
2022/02/27 09:27:28;;;;;;;13.90;5.28;;;4.60;99.90;;;;;;6156814;23;20365;-89
2022/02/27 09:30:02;;;;;;;18.80;5.22;;;4.60;99.90;;;;;;6147927;23;20002;-92
2022/02/27 09:32:51;;;;;;;10.38;4.55;;;4.70;99.90;;;;;;6157032;23;20076;-90
2022/02/27 09:35:28;;;;;;;13.00;4.55;;;4.90;99.90;;;;;;6156405;23;20349;-88
2022/02/27 09:37:59;;;;;;;9.93;4.75;;;4.90;99.90;;;;;;6157217;23;20001;-88
2022/02/27 09:47:37;;;;;;;11.55;4.22;;;5.20;99.90;;;;;;5948495;23;20030;-89
2022/02/27 09:50:06;;;;;;;13.32;4.65;;;5.40;99.90;;;;;;5988371;23;20019;-88
2022/02/27 09:52:34;;;;;;;12.32;5.30;;;5.40;99.90;;;;;;6119012;23;20005;-89
2022/02/27 09:55:05;;;;;;;11.65;3.88;;;5.50;99.90;;;;;;6156914;23;20040;-90
2022/02/27 09:57:37;;;;;;;10.07;3.90;;;5.70;99.90;;;;;;6133189;23;20041;-88
2022/02/27 10:00:05;;;;;;;10.77;4.00;;;5.80;99.90;;;;;;6156688;23;20017;-87
2022/02/27 10:02:34;;;;;;;7.93;4.03;;;5.90;99.90;;;;;;6156703;23;20029;-88
2022/02/27 10:05:03;;;;;;;11.88;4.18;;;6.00;99.90;;;;;;6132324;23;20037;-90
2022/02/27 10:07:31;;;;;;;9.15;3.78;;;6.10;99.90;;;;;;6156631;23;20012;-88
2022/02/27 10:10:11;;;;;;;10.15;4.18;;;6.20;99.90;;;;;;6156200;23;20006;-88
2022/02/27 10:12:42;;;;;;;11.95;4.25;;;6.30;99.90;;;;;;6156372;23;20020;-88
2022/02/27 10:15:08;;;;;;;8.82;4.03;;;6.40;99.90;;;;;;6131750;23;20048;-88
2022/02/27 10:17:41;;;;;;;13.10;4.55;;;6.50;99.90;;;;;;6156599;23;20057;-88
2022/02/27 10:20:25;;;;;;;12.82;4.10;;;6.60;99.90;;;;;;6156197;23;19997;-89
2022/02/27 10:23:03;;;;;;;10.40;3.97;;;6.70;99.90;;;;;;6156074;23;20436;-88
2022/02/27 10:25:54;;;;;;;14.95;5.00;;;6.80;99.90;;;;;;6156920;23;20009;-87
2022/02/27 10:28:23;;;;;;;10.13;4.10;;;6.90;99.90;;;;;;6091118;23;20009;-87
2022/02/27 10:30:51;;;;;;;14.73;5.18;;;7.00;99.90;;;;;;6156696;23;20033;-88
2022/02/27 10:33:21;;;;;;;8.77;4.25;;;7.10;99.90;;;;;;6157144;23;20089;-87
2022/02/27 10:35:53;;;;;;;11.32;4.18;;;7.20;99.90;;;;;;6157717;23;20038;-88
2022/02/27 10:41:36;;;;;;;;;;;;;;;;;;;;;
2022/02/27 10:44:12;;;;;;;10.40;4.60;;;7.50;99.90;;;;;;6157406;23;20088;-87
2022/02/27 10:46:41;;;;;;;12.18;4.50;;;7.60;99.90;;;;;;6156717;23;20010;-88
2022/02/27 10:49:09;;;;;;;13.73;4.40;;;7.60;99.90;;;;;;6156606;23;20005;-88
2022/02/27 10:51:37;;;;;;;13.73;4.63;;;7.70;99.90;;;;;;6156549;23;19998;-88
2022/02/27 10:54:05;;;;;;;13.48;5.97;;;7.90;99.90;;;;;;6157516;23;20006;-88
2022/02/27 10:56:34;;;;;;;10.73;5.68;;;8.00;99.90;;;;;;6156379;23;20009;-89
2022/02/27 10:59:15;;;;;;;14.85;4.88;;;8.10;99.90;;;;;;6156469;23;20001;-87
2022/02/27 11:01:42;;;;;;;11.05;4.28;;;8.10;99.90;;;;;;6132896;23;20029;-87
2022/02/27 11:04:08;;;;;;;11.05;4.97;;;8.30;99.90;;;;;;6158039;23;20006;-87
2022/02/27 11:06:34;;;;;;;11.02;4.57;;;8.40;99.90;;;;;;6159216;23;20009;-86
2022/02/27 11:09:00;;;;;;;10.55;5.03;;;8.50;99.90;;;;;;6157820;23;20002;-85
2022/02/27 11:11:29;;;;;;;10.18;4.28;;;8.50;99.90;;;;;;6159295;23;20009;-85
2022/02/27 11:13:58;;;;;;;10.00;4.30;;;8.70;99.90;;;;;;6160873;23;20059;-86
2022/02/27 11:16:34;;;;;;;10.00;4.05;;;8.80;99.90;;;;;;6160835;23;20009;-86
2022/02/27 11:19:00;;;;;;;13.13;4.18;;;8.80;99.90;;;;;;6161408;23;20004;-86
2022/02/27 11:21:26;;;;;;;8.80;4.15;;;8.90;99.90;;;;;;6160720;23;20096;-86
2022/02/27 11:24:00;;;;;;;10.73;3.95;;;9.00;99.90;;;;;;6162167;23;20005;-86
2022/02/27 11:26:29;;;;;;;9.35;4.13;;;9.10;99.90;;;;;;6161191;23;20008;-87
2022/02/27 11:28:54;;;;;;;11.55;4.15;;;9.20;99.90;;;;;;6136943;23;20053;-86
2022/02/27 11:31:23;;;;;;;11.23;4.80;;;9.30;99.90;;;;;;6161193;23;20005;-88
2022/02/27 11:33:48;;;;;;;8.68;4.47;;;9.30;99.90;;;;;;6161175;23;20428;-88
2022/02/27 11:36:23;;;;;;;9.90;4.65;;;9.40;99.90;;;;;;6161471;23;20005;-88
2022/02/27 11:39:04;;;;;;;11.48;4.50;;;9.50;99.90;;;;;;6188103;23;20001;-87
2022/02/27 11:41:52;;;;;;;11.35;4.40;;;9.60;99.90;;;;;;6136447;23;20005;-88
2022/02/27 11:44:18;;;;;;;7.50;3.92;;;9.70;99.90;;;;;;6161639;23;20080;-86
2022/02/27 11:46:50;;;;;;;9.88;4.22;;;9.80;99.90;;;;;;6163086;23;20367;-87
2022/02/27 11:49:18;;;;;;;10.57;4.60;;;9.90;99.90;;;;;;6138420;23;20005;-86
2022/02/27 11:51:58;;;;;;;12.30;4.90;;;10.00;99.90;;;;;;6140167;23;20442;-85
2022/02/27 11:54:26;;;;;;;11.05;4.60;;;10.10;99.90;;;;;;6097301;23;20011;-85
2022/02/27 11:57:00;;;;;;;9.60;4.70;;;10.10;99.90;;;;;;6097438;23;20021;-84
2022/02/27 11:59:56;;;;;;;10.15;4.25;;;10.20;99.90;;;;;;6097162;23;20002;-86
2022/02/27 12:02:23;;;;;;;10.75;4.20;;;10.30;99.90;;;;;;6097163;23;20378;-85
2022/02/27 12:04:50;;;;;;;11.70;3.67;;;10.50;99.90;;;;;;6097231;23;20006;-86
2022/02/27 12:07:16;;;;;;;9.13;3.63;;;10.60;99.90;;;;;;6073403;23;20006;-86
2022/02/27 12:09:51;;;;;;;8.85;4.10;;;10.70;99.90;;;;;;6073286;23;20014;-86
2022/02/27 12:12:37;;;;;;;9.65;3.75;;;10.80;99.20;;;;;;6097202;23;20097;-85
2022/02/27 12:15:26;;;;;;;9.10;3.72;;;10.90;98.30;;;;;;6096821;23;20090;-86
2022/02/27 12:18:05;;;;;;;10.02;3.83;;;11.00;95.50;;;;;;6097068;23;19998;-86
2022/02/27 12:20:44;;;;;;;8.18;3.20;;;11.00;92.60;;;;;;6096948;23;20009;-85
2022/02/27 12:23:35;;;;;;;8.13;3.45;;;11.00;94.90;;;;;;6096963;23;19998;-85
2022/02/27 12:26:31;;;;;;;11.48;3.75;;;11.10;95.00;;;;;;6096737;23;20085;-86
2022/02/27 12:28:58;;;;;;;8.02;3.40;;;11.10;93.70;;;;;;6096523;23;20013;-86
2022/02/27 12:31:27;;;;;;;10.43;3.90;;;11.20;95.00;;;;;;6073531;23;20387;-86
2022/02/27 12:33:53;;;;;;;9.57;4.35;;;11.30;92.40;;;;;;6096599;23;20025;-85
2022/02/27 12:36:36;;;;;;;9.10;4.32;;;11.40;95.20;;;;;;6073574;23;20013;-86
2022/02/27 12:39:04;;;;;;;23.05;5.47;;;11.40;95.30;;;;;;6096900;23;20008;-85
2022/02/27 12:41:38;;;;;;;9.23;3.50;;;11.50;96.60;;;;;;6097115;23;20419;-86
2022/02/27 12:44:05;;;;;;;9.45;3.72;;;11.50;97.00;;;;;;6096474;23;20419;-86
2022/02/27 12:46:32;;;;;;;9.15;3.45;;;11.60;97.10;;;;;;6071642;23;20011;-85
2022/02/27 12:51:42;;;;;;;8.98;3.65;;;11.60;94.30;;;;;;6101819;23;20072;-85
2022/02/27 12:54:19;;;;;;;8.05;3.33;;;11.70;93.70;;;;;;6077470;23;20101;-86
2022/02/27 12:56:54;;;;;;;9.10;3.67;;;11.70;94.50;;;;;;6101546;23;20002;-85
2022/02/27 12:59:20;;;;;;;9.43;3.90;;;11.80;92.50;;;;;;6101487;23;20002;-85
2022/02/27 13:01:53;;;;;;;8.35;3.50;;;11.80;95.10;;;;;;6127397;23;20013;-86
2022/02/27 13:04:19;;;;;;;7.13;2.95;;;11.90;92.50;;;;;;6102172;23;20033;-86
2022/02/27 13:07:04;;;;;;;8.60;3.08;;;12.00;92.80;;;;;;6077563;23;20006;-86
2022/02/27 13:09:31;;;;;;;6.65;2.90;;;12.00;90.20;;;;;;6127903;23;20422;-86
2022/02/27 13:11:58;;;;;;;6.75;2.80;;;12.10;93.20;;;;;;6054896;23;20010;-86
2022/02/27 13:14:25;;;;;;;4.28;2.08;;;12.10;87.60;;;;;;6102041;23;20438;-86
2022/02/27 13:16:55;;;;;;;5.15;2.03;;;12.10;80.60;;;;;;6078148;23;20505;-85
2022/02/27 13:19:35;;;;;;;5.65;1.90;;;12.20;83.80;;;;;;6127638;23;20022;-85
2022/02/27 13:22:02;;;;;;;6.20;2.17;;;12.20;80.10;;;;;;6077706;23;20438;-86
2022/02/27 13:24:36;;;;;;;4.70;1.88;;;12.30;79.40;;;;;;6101526;23;20013;-85
2022/02/27 13:27:05;;;;;;;6.43;2.20;;;12.30;83.30;;;;;;6101163;23;20002;-85
2022/02/27 13:29:33;;;;;;;6.18;2.05;;;12.30;75.20;;;;;;6127326;23;20001;-86
2022/02/27 13:31:58;;;;;;;5.60;2.10;;;12.30;73.60;;;;;;6101669;23;20010;-86
2022/02/27 13:34:25;;;;;;;4.40;2.15;;;12.30;75.00;;;;;;6077184;23;20534;-86
2022/02/27 13:36:51;;;;;;;4.80;2.00;;;12.40;70.10;;;;;;6101044;23;20093;-86
2022/02/27 13:39:17;;;;;;;5.78;2.42;;;12.40;70.80;;;;;;6101317;23;20006;-86
2022/02/27 13:41:43;;;;;;;7.07;3.13;;;12.40;76.10;;;;;;6101289;23;20013;-87
2022/02/27 13:44:09;;;;;;;7.18;2.75;;;12.40;73.70;;;;;;6077410;23;20323;-88
2022/02/27 13:46:38;;;;;;;5.35;2.35;;;12.40;77.60;;;;;;6077393;23;20026;-86
2022/02/27 13:49:13;;;;;;;6.13;2.40;;;12.40;75.40;;;;;;6077686;23;20097;-88
2022/02/27 13:51:39;;;;;;;4.63;2.40;;;12.50;70.30;;;;;;6077006;23;20037;-87
2022/02/27 13:54:22;;;;;;;5.07;2.25;;;12.50;74.60;;;;;;6126924;23;20006;-87
2022/02/27 13:57:09;;;;;;;6.55;2.03;;;12.60;72.60;;;;;;6077357;23;20002;-87
2022/02/27 13:59:53;;;;;;;4.47;1.92;;;12.60;70.90;;;;;;6100873;23;20009;-86